Time;durP1;ratioP1;P1;durP2;ratioP2;P2;SDS_P1;SDS_P2;PMS_P1;PMS_P2;Temp;Humidity;BMP_temperature;BMP_pressure;BME280_temperature;BME280_humidity;BME280_pressure;Samples;Min_cycle;Max_cycle;Signal;HPM_P1;HPM_P2
2023/08/18 00:00:06;;;;;;;8.52;4.25;;;16.30;99.90;;;;;;4828065;29;20665;-65
2023/08/18 00:02:35;;;;;;;5.47;2.90;;;16.30;99.90;;;;;;4826661;29;20054;-61
2023/08/18 00:05:02;;;;;;;3.17;2.88;;;16.30;99.90;;;;;;4826623;29;20050;-64
2023/08/18 00:07:29;;;;;;;5.07;2.97;;;16.30;99.90;;;;;;4822969;29;20553;-69
2023/08/18 00:09:56;;;;;;;3.92;2.95;;;16.30;99.90;;;;;;4829336;29;20053;-65
2023/08/18 00:12:23;;;;;;;3.45;3.03;;;16.30;99.90;;;;;;4824981;29;20496;-62
2023/08/18 00:14:51;;;;;;;3.63;2.42;;;16.30;99.90;;;;;;4826720;29;20797;-61
2023/08/18 00:17:18;;;;;;;5.97;2.88;;;16.30;99.90;;;;;;4826030;29;20053;-63
2023/08/18 00:19:46;;;;;;;4.72;3.08;;;16.30;99.90;;;;;;4824745;29;20458;-60
2023/08/18 00:22:13;;;;;;;5.93;2.75;;;16.30;99.90;;;;;;4825866;29;20541;-62
2023/08/18 00:24:39;;;;;;;4.28;2.58;;;16.30;99.90;;;;;;4826150;29;20054;-63
2023/08/18 00:27:06;;;;;;;5.50;3.33;;;16.30;99.90;;;;;;4828497;29;20102;-63
2023/08/18 00:29:33;;;;;;;4.30;3.65;;;16.30;99.90;;;;;;4825990;29;20578;-67
2023/08/18 00:32:00;;;;;;;12.35;4.75;;;16.30;99.90;;;;;;4821836;29;20054;-67
2023/08/18 00:34:27;;;;;;;5.25;2.90;;;16.30;99.90;;;;;;4820890;29;20070;-65
2023/08/18 00:36:56;;;;;;;6.25;3.67;;;16.30;99.90;;;;;;4827607;29;20114;-66
2023/08/18 00:39:23;;;;;;;4.13;2.55;;;16.30;99.90;;;;;;4822701;29;20061;-63
2023/08/18 00:41:51;;;;;;;6.03;2.58;;;16.30;99.90;;;;;;4813927;29;20057;-67
2023/08/18 00:44:18;;;;;;;3.78;2.85;;;16.30;99.90;;;;;;4827871;29;20361;-70
2023/08/18 00:46:45;;;;;;;6.53;3.88;;;16.30;99.90;;;;;;4825523;29;20520;-65
2023/08/18 00:49:16;;;;;;;3.80;2.88;;;16.30;99.90;;;;;;4823276;29;20142;-62
2023/08/18 00:51:43;;;;;;;;;;;16.30;99.90;;;;;;4824253;29;20691;-67
2023/08/18 00:54:12;;;;;;;4.95;3.10;;;16.30;99.90;;;;;;4826371;29;19977;-65
2023/08/18 00:56:42;;;;;;;4.93;3.60;;;16.30;99.90;;;;;;4822073;29;20057;-62
2023/08/18 00:59:10;;;;;;;3.45;3.15;;;16.30;99.90;;;;;;4824279;29;20115;-62
2023/08/18 01:01:38;;;;;;;3.95;2.78;;;16.30;99.90;;;;;;4819800;29;20125;-60
2023/08/18 01:04:05;;;;;;;4.95;2.78;;;16.30;99.90;;;;;;4824242;29;20477;-69
2023/08/18 01:06:32;;;;;;;6.10;4.10;;;16.30;99.90;;;;;;4824228;29;20074;-63
2023/08/18 01:09:00;;;;;;;4.35;3.95;;;16.30;99.90;;;;;;4811274;29;20053;-69
2023/08/18 01:11:32;;;;;;;6.35;3.38;;;16.30;99.90;;;;;;4822621;29;20070;-65
2023/08/18 01:14:19;;;;;;;5.18;2.80;;;16.30;99.90;;;;;;4821622;29;20624;-66
2023/08/18 01:16:56;;;;;;;4.70;3.30;;;16.30;99.90;;;;;;4825507;29;20565;-67
2023/08/18 01:19:24;;;;;;;5.93;3.00;;;16.30;99.90;;;;;;4821209;29;20053;-61
2023/08/18 01:21:54;;;;;;;2.90;2.35;;;16.30;99.90;;;;;;4824570;29;20114;-64
2023/08/18 01:24:24;;;;;;;6.32;2.13;;;16.30;99.90;;;;;;4823783;29;20084;-65
2023/08/18 01:26:52;;;;;;;;;;;16.30;99.90;;;;;;4821241;29;20053;-64
2023/08/18 01:29:23;;;;;;;5.85;3.05;;;16.30;99.90;;;;;;4820478;29;19933;-68
2023/08/18 01:31:54;;;;;;;3.83;2.60;;;16.30;99.90;;;;;;4814622;29;20632;-61
2023/08/18 01:34:25;;;;;;;4.57;2.78;;;16.30;99.90;;;;;;4816261;29;20058;-69
2023/08/18 01:36:55;;;;;;;3.28;2.60;;;16.30;99.90;;;;;;4822732;29;20058;-67
2023/08/18 01:39:24;;;;;;;4.35;2.50;;;16.20;99.90;;;;;;4825097;29;20049;-62
2023/08/18 01:41:52;;;;;;;3.67;2.35;;;16.30;99.90;;;;;;4813127;29;20144;-61
2023/08/18 01:44:19;;;;;;;3.15;2.58;;;16.20;99.90;;;;;;4822819;29;20066;-70
2023/08/18 01:46:47;;;;;;;4.97;2.95;;;16.30;99.90;;;;;;4823007;29;20150;-65
2023/08/18 01:49:14;;;;;;;4.80;2.97;;;16.30;99.90;;;;;;4826879;29;20107;-64
2023/08/18 01:51:41;;;;;;;5.18;3.28;;;16.30;99.90;;;;;;4823889;29;20050;-69
2023/08/18 01:54:08;;;;;;;5.38;3.60;;;16.30;99.90;;;;;;4825846;29;20618;-63
2023/08/18 01:56:35;;;;;;;3.72;2.10;;;16.30;99.90;;;;;;4827125;29;20054;-66
2023/08/18 01:59:04;;;;;;;5.10;2.88;;;16.30;99.90;;;;;;4828098;29;20834;-64
2023/08/18 02:01:31;;;;;;;5.80;3.05;;;16.30;99.90;;;;;;4809406;29;20106;-61
2023/08/18 02:03:59;;;;;;;9.70;2.97;;;16.30;99.90;;;;;;4828687;29;20054;-68
2023/08/18 02:06:26;;;;;;;8.60;4.25;;;16.30;99.90;;;;;;4813662;29;20477;-66
2023/08/18 02:08:53;;;;;;;2.97;2.70;;;16.30;99.90;;;;;;4828505;29;20110;-66
2023/08/18 02:11:19;;;;;;;3.42;2.25;;;16.30;99.90;;;;;;4827854;29;20070;-63
2023/08/18 02:13:46;;;;;;;6.40;3.33;;;16.30;99.90;;;;;;4825648;29;20050;-68
2023/08/18 02:16:14;;;;;;;2.95;2.42;;;16.30;99.90;;;;;;4805469;29;20106;-63
2023/08/18 02:18:41;;;;;;;3.70;2.47;;;16.30;99.90;;;;;;4826981;29;20058;-67
2023/08/18 02:21:08;;;;;;;5.03;4.15;;;16.30;99.90;;;;;;4825195;29;20109;-66
2023/08/18 02:23:35;;;;;;;4.93;3.03;;;16.30;99.90;;;;;;4828834;29;20074;-66
2023/08/18 02:26:04;;;;;;;6.72;3.17;;;16.30;99.90;;;;;;4829240;29;20054;-61
2023/08/18 02:28:32;;;;;;;5.28;2.70;;;16.30;99.90;;;;;;4825759;29;20393;-68
2023/08/18 02:31:07;;;;;;;4.20;2.28;;;16.30;99.90;;;;;;4830255;29;20099;-62
2023/08/18 02:33:35;;;;;;;7.53;2.95;;;16.30;99.90;;;;;;4825020;29;20549;-61
2023/08/18 02:36:02;;;;;;;3.90;2.72;;;16.30;99.90;;;;;;4829138;29;20073;-61
2023/08/18 02:38:30;;;;;;;2.45;2.25;;;16.30;99.90;;;;;;4827670;29;20118;-65
2023/08/18 02:40:57;;;;;;;3.70;2.65;;;16.30;99.90;;;;;;4828239;29;20057;-66
2023/08/18 02:43:24;;;;;;;4.20;2.53;;;16.30;99.90;;;;;;4812024;29;20131;-63
2023/08/18 02:45:58;;;;;;;2.65;2.45;;;16.30;99.90;;;;;;4827383;29;20455;-69
2023/08/18 02:48:27;;;;;;;3.30;2.72;;;16.30;99.90;;;;;;4822464;29;20137;-71
2023/08/18 02:51:10;;;;;;;4.97;2.60;;;16.30;99.90;;;;;;4831187;29;20057;-60
2023/08/18 02:53:37;;;;;;;3.72;2.92;;;16.30;99.90;;;;;;4809707;29;20115;-66
2023/08/18 02:56:05;;;;;;;4.35;3.13;;;16.30;99.90;;;;;;4820699;29;20518;-65
2023/08/18 02:58:33;;;;;;;8.63;2.65;;;16.30;99.90;;;;;;4814435;29;20126;-64
2023/08/18 03:01:03;;;;;;;2.67;2.47;;;16.30;99.90;;;;;;4827815;29;20178;-69
2023/08/18 03:03:32;;;;;;;5.78;2.47;;;16.30;99.90;;;;;;4828405;29;20048;-65
2023/08/18 03:06:01;;;;;;;5.80;2.55;;;16.30;99.90;;;;;;4827215;29;20054;-68
2023/08/18 03:08:27;;;;;;;4.25;2.88;;;16.30;99.90;;;;;;4830812;29;20382;-60
2023/08/18 03:10:59;;;;;;;10.15;3.35;;;16.30;99.90;;;;;;4822540;29;20118;-67
2023/08/18 03:13:27;;;;;;;5.75;3.85;;;16.30;99.90;;;;;;4806743;29;20034;-63
2023/08/18 03:15:54;;;;;;;9.05;3.78;;;16.30;99.90;;;;;;4800821;29;20383;-65
2023/08/18 03:18:21;;;;;;;5.97;3.22;;;16.30;99.90;;;;;;4806797;29;20051;-65
2023/08/18 03:20:49;;;;;;;4.03;2.65;;;16.30;99.90;;;;;;4809538;29;20055;-71
2023/08/18 03:23:18;;;;;;;5.93;3.80;;;16.30;99.90;;;;;;4807747;29;20055;-68
2023/08/18 03:25:46;;;;;;;15.98;3.42;;;16.30;99.90;;;;;;4824533;29;20078;-71
2023/08/18 03:28:13;;;;;;;3.88;2.92;;;16.30;99.90;;;;;;4806158;29;20082;-65
2023/08/18 03:30:41;;;;;;;8.85;4.13;;;16.30;99.90;;;;;;4816119;29;20081;-66
2023/08/18 03:33:08;;;;;;;5.78;3.50;;;16.30;99.90;;;;;;4817889;29;20055;-69
2023/08/18 03:35:35;;;;;;;4.10;3.60;;;16.40;99.90;;;;;;4809316;29;20050;-67
2023/08/18 03:38:03;;;;;;;6.18;3.60;;;16.30;99.90;;;;;;4819819;29;20150;-66
2023/08/18 03:40:32;;;;;;;6.55;3.75;;;16.30;99.90;;;;;;4819178;29;20444;-65
2023/08/18 03:42:59;;;;;;;3.83;3.17;;;16.30;99.90;;;;;;4807277;29;20092;-63
2023/08/18 03:45:27;;;;;;;8.25;3.88;;;16.30;99.90;;;;;;4823722;29;20061;-64
2023/08/18 03:47:54;;;;;;;5.53;4.15;;;16.30;99.90;;;;;;4808952;29;20075;-60
2023/08/18 03:50:22;;;;;;;8.23;3.90;;;16.30;99.90;;;;;;4810628;29;20398;-65
2023/08/18 03:52:49;;;;;;;8.20;3.97;;;16.40;99.90;;;;;;4819311;29;20580;-65
2023/08/18 03:55:17;;;;;;;5.80;4.10;;;16.30;99.90;;;;;;4812771;29;20054;-63
2023/08/18 03:57:45;;;;;;;5.72;4.68;;;16.30;99.90;;;;;;4823102;29;20050;-69
2023/08/18 04:00:12;;;;;;;7.07;4.22;;;16.30;99.90;;;;;;4810430;29;20050;-61
2023/08/18 04:02:42;;;;;;;5.18;3.88;;;16.30;99.90;;;;;;4805537;29;20058;-62
2023/08/18 04:05:14;;;;;;;6.90;4.50;;;16.30;99.90;;;;;;4824739;29;20059;-63
2023/08/18 04:07:41;;;;;;;9.13;5.60;;;16.30;99.90;;;;;;4811684;29;20054;-65
2023/08/18 04:10:08;;;;;;;5.45;4.85;;;16.30;99.90;;;;;;4812179;29;20081;-67
2023/08/18 04:12:35;;;;;;;7.03;5.03;;;16.30;99.90;;;;;;4816234;29;20077;-68
2023/08/18 04:15:03;;;;;;;9.00;4.43;;;16.30;99.90;;;;;;4825724;29;20728;-66
2023/08/18 04:17:30;;;;;;;9.68;4.95;;;16.30;99.90;;;;;;4824685;29;20062;-61
2023/08/18 04:19:58;;;;;;;5.85;5.35;;;16.30;99.90;;;;;;4821737;29;20046;-61
2023/08/18 04:22:25;;;;;;;6.63;4.28;;;16.40;99.90;;;;;;4816510;29;20581;-63
2023/08/18 04:24:51;;;;;;;7.35;3.92;;;16.30;99.90;;;;;;4828240;29;20141;-64
2023/08/18 04:27:20;;;;;;;4.82;4.32;;;16.40;99.90;;;;;;4823556;29;20042;-65
2023/08/18 04:29:47;;;;;;;6.35;4.25;;;16.40;99.90;;;;;;4805418;29;20050;-67
2023/08/18 04:32:15;;;;;;;5.57;4.28;;;16.30;99.90;;;;;;4821532;29;20164;-67
2023/08/18 04:34:41;;;;;;;6.97;5.05;;;16.40;99.90;;;;;;4827175;29;20516;-70
2023/08/18 04:37:09;;;;;;;4.10;3.70;;;16.30;99.90;;;;;;4819146;29;20865;-63
2023/08/18 04:39:36;;;;;;;6.05;3.65;;;16.40;99.90;;;;;;4826248;29;20449;-66
2023/08/18 04:42:04;;;;;;;6.13;4.03;;;16.40;99.90;;;;;;4825176;29;20145;-65
2023/08/18 04:44:33;;;;;;;6.97;3.33;;;16.40;99.90;;;;;;4818956;29;20057;-62
2023/08/18 04:47:03;;;;;;;4.50;3.75;;;16.30;99.90;;;;;;4824557;29;20057;-67
2023/08/18 04:49:30;;;;;;;3.20;2.90;;;16.40;99.90;;;;;;4823179;29;20042;-61
2023/08/18 04:51:57;;;;;;;4.78;3.22;;;16.40;99.90;;;;;;4826678;29;20065;-66
2023/08/18 04:54:23;;;;;;;4.30;3.55;;;16.40;99.90;;;;;;4822401;29;20053;-66
2023/08/18 04:56:58;;;;;;;10.52;3.22;;;16.40;99.90;;;;;;4823350;29;20530;-66
2023/08/18 04:59:26;;;;;;;5.07;3.13;;;16.40;99.90;;;;;;4829421;29;20419;-61
2023/08/18 05:01:54;;;;;;;3.60;3.30;;;16.40;99.90;;;;;;4807971;29;20221;-67
2023/08/18 05:04:22;;;;;;;6.18;3.63;;;16.50;99.90;;;;;;4809511;29;20061;-66
2023/08/18 05:06:48;;;;;;;6.82;4.22;;;16.50;99.90;;;;;;4825913;29;20061;-61
2023/08/18 05:09:15;;;;;;;4.18;3.03;;;16.50;99.90;;;;;;4826027;29;20596;-63
2023/08/18 05:11:42;;;;;;;3.58;2.95;;;16.50;99.90;;;;;;4815384;29;20073;-64
2023/08/18 05:14:09;;;;;;;3.30;3.00;;;16.50;99.90;;;;;;4825852;29;20049;-67
2023/08/18 05:16:36;;;;;;;3.60;2.88;;;16.50;99.90;;;;;;4826653;29;20061;-62
2023/08/18 05:19:03;;;;;;;3.17;2.38;;;16.50;99.90;;;;;;4825421;29;20038;-61
2023/08/18 05:21:30;;;;;;;4.38;2.72;;;16.50;99.90;;;;;;4825076;29;20057;-69
2023/08/18 05:23:57;;;;;;;5.53;2.85;;;16.60;99.90;;;;;;4827273;29;20716;-68
2023/08/18 05:26:24;;;;;;;3.80;3.00;;;16.60;99.90;;;;;;4828090;29;20080;-67
2023/08/18 05:28:51;;;;;;;4.32;3.08;;;16.60;99.90;;;;;;4825243;29;20129;-64
2023/08/18 05:31:18;;;;;;;3.38;3.08;;;16.60;99.90;;;;;;4829838;29;20527;-66
2023/08/18 05:33:44;;;;;;;3.55;3.10;;;16.60;99.90;;;;;;4830278;29;20084;-64
2023/08/18 05:36:11;;;;;;;5.78;3.55;;;16.70;99.90;;;;;;4833681;29;20057;-66
2023/08/18 05:38:38;;;;;;;3.42;2.85;;;16.70;99.90;;;;;;4832765;29;20050;-67
2023/08/18 05:41:07;;;;;;;6.20;3.33;;;16.70;99.90;;;;;;4830881;29;20115;-63
2023/08/18 05:43:38;;;;;;;3.05;2.78;;;16.70;99.90;;;;;;4828921;29;20052;-68
2023/08/18 05:46:05;;;;;;;3.55;3.25;;;16.70;99.90;;;;;;4832729;29;20055;-66
2023/08/18 05:48:33;;;;;;;4.15;2.60;;;16.70;99.90;;;;;;4832571;29;20148;-61
2023/08/18 05:51:01;;;;;;;3.25;2.95;;;16.70;99.90;;;;;;4830436;29;20175;-70
2023/08/18 05:53:29;;;;;;;2.95;2.75;;;16.70;99.90;;;;;;4829507;29;20076;-64
2023/08/18 05:55:57;;;;;;;6.20;3.80;;;16.80;99.90;;;;;;4832597;29;20578;-65
2023/08/18 05:58:24;;;;;;;5.22;3.35;;;16.80;99.90;;;;;;4829824;29;20034;-65
2023/08/18 06:00:51;;;;;;;3.28;2.15;;;16.80;99.90;;;;;;4833608;29;20487;-66
2023/08/18 06:03:21;;;;;;;5.85;3.40;;;16.80;99.90;;;;;;4833346;29;20795;-64
2023/08/18 06:05:48;;;;;;;3.95;3.60;;;16.80;99.90;;;;;;4832229;29;20357;-67
2023/08/18 06:08:16;;;;;;;6.25;3.42;;;16.80;99.90;;;;;;4828051;29;20091;-64
2023/08/18 06:10:43;;;;;;;3.30;3.00;;;16.80;99.90;;;;;;4830490;29;20070;-63
2023/08/18 06:13:10;;;;;;;2.95;2.72;;;16.80;99.90;;;;;;4830932;29;20042;-61
2023/08/18 06:15:37;;;;;;;4.00;3.65;;;16.80;99.90;;;;;;4827111;29;20043;-61
2023/08/18 06:18:06;;;;;;;6.78;3.67;;;16.80;99.90;;;;;;4829559;29;20492;-61
2023/08/18 06:20:32;;;;;;;12.90;5.07;;;16.80;99.90;;;;;;4834098;29;20054;-64
2023/08/18 06:22:59;;;;;;;5.10;3.28;;;16.90;99.90;;;;;;4830154;29;20073;-63
2023/08/18 06:25:26;;;;;;;4.63;3.97;;;17.00;99.90;;;;;;4832519;29;20046;-65
2023/08/18 06:27:53;;;;;;;4.80;3.38;;;17.00;99.90;;;;;;4829470;29;20077;-62
2023/08/18 06:30:20;;;;;;;4.07;3.35;;;17.10;99.90;;;;;;4828262;29;20188;-64
2023/08/18 06:32:47;;;;;;;9.75;3.78;;;17.20;99.90;;;;;;4830259;29;20056;-64
2023/08/18 06:35:14;;;;;;;4.03;3.70;;;17.20;99.90;;;;;;4826585;29;20050;-63
2023/08/18 06:37:42;;;;;;;6.40;4.47;;;17.30;99.90;;;;;;4829145;29;20046;-66
2023/08/18 06:40:09;;;;;;;3.00;2.78;;;17.30;99.90;;;;;;4829382;29;20053;-66
2023/08/18 06:42:36;;;;;;;3.90;3.25;;;17.40;99.90;;;;;;4825092;29;20054;-62
2023/08/18 06:45:04;;;;;;;5.88;4.18;;;17.50;99.90;;;;;;4825842;29;20066;-63
2023/08/18 06:47:31;;;;;;;6.05;3.50;;;17.50;99.90;;;;;;4830829;29;20058;-60
2023/08/18 06:50:02;;;;;;;5.55;3.90;;;17.60;99.90;;;;;;4828978;29;20072;-68
2023/08/18 06:52:29;;;;;;;7.53;3.13;;;17.60;99.90;;;;;;4826638;29;20122;-63
2023/08/18 06:54:56;;;;;;;4.10;3.58;;;17.60;99.90;;;;;;4827316;29;20157;-66
2023/08/18 06:57:25;;;;;;;3.17;2.88;;;17.70;99.90;;;;;;4828466;29;20054;-68
2023/08/18 06:59:52;;;;;;;4.20;3.00;;;17.70;99.90;;;;;;4827235;29;20050;-65
2023/08/18 07:02:20;;;;;;;4.28;3.60;;;17.70;99.90;;;;;;4825658;29;20458;-61
2023/08/18 07:04:47;;;;;;;4.35;3.95;;;17.70;99.90;;;;;;4825566;29;20102;-65
2023/08/18 07:07:15;;;;;;;5.45;3.83;;;17.80;99.90;;;;;;4824066;29;20102;-66
2023/08/18 07:09:41;;;;;;;4.20;3.78;;;17.80;99.90;;;;;;4829341;29;20042;-64
2023/08/18 07:12:09;;;;;;;4.50;3.22;;;17.80;99.90;;;;;;4828708;29;20497;-65
2023/08/18 07:14:35;;;;;;;4.38;3.45;;;17.90;99.90;;;;;;4824198;29;20045;-63
2023/08/18 07:17:03;;;;;;;3.90;3.13;;;17.90;99.90;;;;;;4829682;29;20056;-65
2023/08/18 07:19:30;;;;;;;5.40;2.65;;;17.90;99.90;;;;;;4829645;29;20103;-67
2023/08/18 07:21:57;;;;;;;4.68;2.97;;;18.00;99.90;;;;;;4826894;29;20061;-61
2023/08/18 07:24:24;;;;;;;3.83;3.53;;;18.10;99.90;;;;;;4816221;29;20577;-68
2023/08/18 07:26:54;;;;;;;4.30;3.28;;;18.20;99.90;;;;;;4824487;29;20497;-68
2023/08/18 07:29:21;;;;;;;4.40;3.80;;;18.20;99.90;;;;;;4824362;29;20557;-64
2023/08/18 07:31:48;;;;;;;4.03;3.28;;;18.20;99.90;;;;;;4824191;29;20411;-61
2023/08/18 07:34:15;;;;;;;3.47;3.17;;;18.20;99.90;;;;;;4824387;29;20066;-62
2023/08/18 07:36:42;;;;;;;3.47;3.17;;;18.20;99.90;;;;;;4828499;29;20810;-64
2023/08/18 07:39:11;;;;;;;3.40;3.10;;;18.20;99.90;;;;;;4822909;29;20398;-63
2023/08/18 07:41:40;;;;;;;6.03;3.30;;;18.20;99.90;;;;;;4823986;29;20046;-68
2023/08/18 07:44:08;;;;;;;3.85;3.55;;;18.20;99.90;;;;;;4828635;29;20049;-60
2023/08/18 07:46:35;;;;;;;2.85;2.58;;;18.20;99.90;;;;;;4823278;29;20145;-68
2023/08/18 07:49:03;;;;;;;3.33;2.97;;;18.20;99.90;;;;;;4826281;29;20062;-65
2023/08/18 07:51:31;;;;;;;3.63;3.05;;;18.20;99.90;;;;;;4826408;29;20042;-63
2023/08/18 07:53:58;;;;;;;4.43;3.05;;;18.20;99.90;;;;;;4823147;29;20107;-64
2023/08/18 07:56:25;;;;;;;5.40;3.97;;;18.30;99.90;;;;;;4823634;29;20050;-66
2023/08/18 07:58:51;;;;;;;4.28;3.42;;;18.40;99.90;;;;;;4810503;29;20475;-67
2023/08/18 08:01:22;;;;;;;3.95;2.78;;;18.40;99.90;;;;;;4826363;29;20722;-63
2023/08/18 08:03:49;;;;;;;3.30;2.78;;;18.50;99.90;;;;;;4821121;29;20133;-68
2023/08/18 08:06:16;;;;;;;3.15;2.92;;;18.60;99.90;;;;;;4825060;29;20085;-64
2023/08/18 08:08:43;;;;;;;6.38;3.45;;;18.70;99.90;;;;;;4822496;29;20134;-63
2023/08/18 08:11:12;;;;;;;3.13;2.72;;;18.80;99.90;;;;;;4825638;29;20787;-68
2023/08/18 08:13:39;;;;;;;3.95;2.50;;;18.80;99.90;;;;;;4829923;29;20114;-66
2023/08/18 08:16:06;;;;;;;3.30;2.80;;;18.90;99.90;;;;;;4825305;29;20045;-66
2023/08/18 08:18:33;;;;;;;4.97;3.40;;;18.90;99.90;;;;;;4829081;29;20054;-61
2023/08/18 08:21:00;;;;;;;5.20;3.45;;;19.00;99.90;;;;;;4821298;29;20061;-65
2023/08/18 08:23:27;;;;;;;4.57;3.08;;;19.00;99.90;;;;;;4824741;29;20046;-64
2023/08/18 08:25:54;;;;;;;2.75;2.55;;;19.00;99.90;;;;;;4825006;29;20054;-69
2023/08/18 08:28:21;;;;;;;4.80;3.35;;;19.10;99.90;;;;;;4826400;29;20077;-64
2023/08/18 08:30:49;;;;;;;3.00;2.80;;;19.20;99.90;;;;;;4826957;29;20136;-65
2023/08/18 08:33:19;;;;;;;3.13;2.80;;;19.10;99.90;;;;;;4824980;29;20050;-66
2023/08/18 08:35:46;;;;;;;4.35;2.90;;;19.20;99.90;;;;;;4825292;29;20037;-63
2023/08/18 08:38:13;;;;;;;4.80;2.58;;;19.30;99.90;;;;;;4824335;29;20133;-65
2023/08/18 08:40:42;;;;;;;5.80;2.53;;;19.40;99.90;;;;;;4825784;29;20245;-64
2023/08/18 08:43:09;;;;;;;2.17;1.98;;;19.40;99.90;;;;;;4823076;29;20054;-66
2023/08/18 08:45:38;;;;;;;2.67;2.47;;;19.50;99.90;;;;;;4828357;29;20041;-63
2023/08/18 08:48:10;;;;;;;2.93;2.73;;;19.60;99.90;;;;;;4828649;29;20056;-67
2023/08/18 08:50:40;;;;;;;7.18;2.30;;;19.70;99.90;;;;;;4827717;29;20301;-66
2023/08/18 08:53:11;;;;;;;2.50;2.40;;;19.70;99.90;;;;;;4827880;29;20049;-64
2023/08/18 08:55:40;;;;;;;4.90;2.22;;;19.90;99.90;;;;;;4825510;29;20133;-66
2023/08/18 08:58:07;;;;;;;2.22;1.95;;;19.80;99.90;;;;;;4827975;29;20111;-66
2023/08/18 09:00:40;;;;;;;1.80;1.70;;;19.80;99.90;;;;;;4824648;29;20061;-64
2023/08/18 09:03:07;;;;;;;4.03;2.20;;;19.80;99.90;;;;;;4823620;29;20096;-63
2023/08/18 09:05:34;;;;;;;2.08;1.63;;;19.90;99.90;;;;;;4829008;29;20178;-67
2023/08/18 09:08:01;;;;;;;3.22;1.80;;;20.00;99.90;;;;;;4827007;29;20098;-62
2023/08/18 09:10:29;;;;;;;2.67;2.20;;;20.10;99.90;;;;;;4828672;29;20050;-66
2023/08/18 09:12:55;;;;;;;2.17;1.85;;;20.20;99.90;;;;;;4824446;29;20049;-61
2023/08/18 09:15:23;;;;;;;3.80;2.33;;;20.30;99.90;;;;;;4827063;29;20486;-68
2023/08/18 09:17:51;;;;;;;2.85;1.90;;;20.30;99.90;;;;;;4824919;29;20520;-70
2023/08/18 09:20:18;;;;;;;1.92;1.40;;;20.30;99.90;;;;;;4826640;29;20054;-70
2023/08/18 09:22:46;;;;;;;4.43;1.95;;;20.30;99.90;;;;;;4827007;29;20066;-65
2023/08/18 09:25:13;;;;;;;2.72;1.88;;;20.20;99.90;;;;;;4826628;29;20058;-69
2023/08/18 09:27:41;;;;;;;3.67;2.33;;;20.10;99.90;;;;;;4827003;29;20485;-65
2023/08/18 09:30:08;;;;;;;2.20;1.80;;;20.00;99.90;;;;;;4818391;29;20114;-69
2023/08/18 09:32:36;;;;;;;1.58;1.48;;;19.90;99.90;;;;;;4822264;29;20061;-70
2023/08/18 09:35:09;;;;;;;3.15;2.10;;;19.90;99.90;;;;;;4823930;29;20050;-67
2023/08/18 09:37:36;;;;;;;3.53;1.95;;;19.80;99.90;;;;;;4824449;29;20046;-65
2023/08/18 09:40:04;;;;;;;3.75;2.13;;;19.80;99.90;;;;;;4823002;29;20487;-62
2023/08/18 09:42:31;;;;;;;2.50;1.92;;;19.80;99.90;;;;;;4804757;29;20097;-64
2023/08/18 09:44:59;;;;;;;4.13;2.53;;;19.90;99.90;;;;;;4821144;29;20523;-64
2023/08/18 09:47:29;;;;;;;2.28;1.83;;;19.80;99.90;;;;;;4823811;29;20409;-71
2023/08/18 09:49:59;;;;;;;2.75;1.75;;;19.90;99.90;;;;;;4825517;29;20050;-67
2023/08/18 09:52:29;;;;;;;3.58;2.05;;;19.90;99.90;;;;;;4826872;29;20046;-65
2023/08/18 09:55:11;;;;;;;;;;;19.90;99.90;;;;;;4823719;29;20046;-62
2023/08/18 09:57:43;;;;;;;3.03;1.35;;;20.00;99.90;;;;;;4828832;29;19973;-70
2023/08/18 10:00:12;;;;;;;3.97;1.63;;;20.00;99.90;;;;;;4820698;29;20153;-69
2023/08/18 10:02:42;;;;;;;1.40;1.30;;;20.00;99.90;;;;;;4822450;29;20531;-73
2023/08/18 10:05:10;;;;;;;2.47;2.25;;;19.90;99.90;;;;;;4815827;29;20133;-66
2023/08/18 10:07:38;;;;;;;5.03;2.13;;;19.90;99.90;;;;;;4822479;29;20046;-65
2023/08/18 10:10:06;;;;;;;3.67;1.60;;;20.00;99.90;;;;;;4822551;29;20042;-62
2023/08/18 10:12:33;;;;;;;4.38;1.77;;;20.00;99.90;;;;;;4826628;29;20077;-62
2023/08/18 10:15:01;;;;;;;2.10;1.65;;;20.10;99.90;;;;;;4824960;29;20141;-65
2023/08/18 10:17:28;;;;;;;2.17;1.58;;;20.10;99.90;;;;;;4829121;29;20050;-66
2023/08/18 10:19:56;;;;;;;4.95;1.92;;;20.20;99.90;;;;;;4830829;29;20579;-64
2023/08/18 10:22:25;;;;;;;4.40;2.10;;;20.30;99.90;;;;;;4828181;29;20697;-64
2023/08/18 10:24:53;;;;;;;3.60;2.03;;;20.30;99.90;;;;;;4827319;29;20054;-65
2023/08/18 10:27:26;;;;;;;2.25;2.13;;;20.30;99.90;;;;;;4829354;29;20106;-65
2023/08/18 10:30:00;;;;;;;3.40;1.98;;;20.20;99.90;;;;;;4826195;29;20469;-61
2023/08/18 10:32:27;;;;;;;3.83;2.22;;;20.20;99.90;;;;;;4828515;29;20146;-67
2023/08/18 10:35:21;;;;;;;7.35;2.95;;;20.30;99.90;;;;;;4824522;29;20053;-64
2023/08/18 10:38:00;;;;;;;4.57;2.28;;;20.20;99.90;;;;;;4826664;29;20073;-64
2023/08/18 10:40:34;;;;;;;2.42;1.88;;;20.20;99.90;;;;;;4823287;29;20702;-68
2023/08/18 10:43:12;;;;;;;3.17;2.22;;;20.30;99.90;;;;;;4824675;29;20173;-63
2023/08/18 10:45:42;;;;;;;2.95;2.40;;;20.30;99.90;;;;;;4827434;29;20053;-69
2023/08/18 10:48:09;;;;;;;4.80;2.45;;;20.30;99.90;;;;;;4823801;29;20482;-63
2023/08/18 10:50:45;;;;;;;2.22;2.03;;;20.40;99.90;;;;;;4825993;29;20122;-70
2023/08/18 10:53:13;;;;;;;2.40;2.13;;;20.40;99.90;;;;;;4827518;29;20077;-61
2023/08/18 10:55:43;;;;;;;3.85;1.65;;;20.50;99.90;;;;;;4823371;29;20106;-62
2023/08/18 10:58:10;;;;;;;2.83;2.45;;;20.60;99.90;;;;;;4824565;29;20130;-62
2023/08/18 11:00:37;;;;;;;3.05;2.38;;;20.70;99.90;;;;;;4829751;29;20046;-63
2023/08/18 11:03:07;;;;;;;2.00;1.80;;;20.70;99.90;;;;;;4825591;29;20086;-64
2023/08/18 11:05:34;;;;;;;1.83;1.73;;;20.70;99.90;;;;;;4829329;29;20135;-69
2023/08/18 11:08:21;;;;;;;5.63;3.28;;;20.70;99.90;;;;;;4827693;29;20396;-61
2023/08/18 11:10:48;;;;;;;5.32;2.30;;;20.70;99.90;;;;;;4827211;29;20149;-65
2023/08/18 11:13:24;;;;;;;5.22;2.17;;;20.80;99.90;;;;;;4824396;29;20134;-63
2023/08/18 11:15:52;;;;;;;3.05;2.80;;;20.80;99.90;;;;;;4829218;29;20053;-64
2023/08/18 11:18:23;;;;;;;3.47;3.17;;;20.90;99.90;;;;;;4829212;29;20471;-70
2023/08/18 11:20:53;;;;;;;2.28;2.08;;;20.90;99.90;;;;;;4828102;29;20050;-63
2023/08/18 11:23:20;;;;;;;3.60;2.28;;;21.00;99.90;;;;;;4828735;29;20122;-66
2023/08/18 11:25:47;;;;;;;5.28;2.55;;;21.10;99.90;;;;;;4825747;29;20050;-64
2023/08/18 11:28:15;;;;;;;4.32;1.77;;;21.20;99.90;;;;;;4823030;29;20042;-69
2023/08/18 11:30:43;;;;;;;2.28;2.08;;;21.30;99.90;;;;;;4820552;29;20125;-68
2023/08/18 11:33:11;;;;;;;5.68;2.70;;;21.40;99.90;;;;;;4824324;29;20046;-63
2023/08/18 11:35:38;;;;;;;3.45;2.15;;;21.50;99.90;;;;;;4826264;29;20065;-68
2023/08/18 11:38:07;;;;;;;3.38;2.20;;;21.50;99.90;;;;;;4824786;29;20215;-63
2023/08/18 11:40:37;;;;;;;2.28;2.08;;;21.50;99.90;;;;;;4824142;29;20053;-64
2023/08/18 11:43:09;;;;;;;2.47;2.27;;;21.60;99.90;;;;;;4826636;29;20528;-61
2023/08/18 11:45:37;;;;;;;5.93;1.80;;;21.60;99.90;;;;;;4825151;29;20497;-65
2023/08/18 11:48:05;;;;;;;2.22;2.03;;;21.50;99.90;;;;;;4825894;29;20510;-61
2023/08/18 11:50:40;;;;;;;2.80;2.10;;;21.30;99.90;;;;;;4827345;29;20459;-65
2023/08/18 11:53:08;;;;;;;1.58;1.48;;;21.20;99.90;;;;;;4826044;29;20069;-62
2023/08/18 11:55:44;;;;;;;2.35;1.98;;;21.10;99.90;;;;;;4826401;29;20499;-68
2023/08/18 11:58:14;;;;;;;3.35;1.83;;;21.00;99.90;;;;;;4825162;29;20904;-63
2023/08/18 12:00:44;;;;;;;4.03;2.80;;;20.90;99.90;;;;;;4827736;29;20034;-66
2023/08/18 12:03:26;;;;;;;4.50;2.40;;;20.90;99.90;;;;;;4827575;29;20126;-65
2023/08/18 12:05:58;;;;;;;3.38;2.88;;;20.80;99.90;;;;;;4829413;29;20302;-67
2023/08/18 12:08:29;;;;;;;2.65;1.90;;;20.80;99.90;;;;;;4826740;29;20042;-71
2023/08/18 12:10:57;;;;;;;3.20;2.28;;;20.80;99.90;;;;;;4824821;29;20409;-65
2023/08/18 12:13:30;;;;;;;2.80;1.83;;;20.90;99.90;;;;;;4827557;29;20034;-69
2023/08/18 12:15:57;;;;;;;2.03;1.92;;;21.00;99.90;;;;;;4826278;29;20051;-65
2023/08/18 12:18:24;;;;;;;2.13;1.95;;;21.10;99.90;;;;;;4823972;29;20054;-66
2023/08/18 12:20:51;;;;;;;3.08;1.70;;;21.30;99.90;;;;;;4825745;29;20062;-69
2023/08/18 12:23:18;;;;;;;3.10;1.85;;;21.40;99.90;;;;;;4826381;29;20042;-68
2023/08/18 12:25:45;;;;;;;5.43;2.22;;;21.40;99.90;;;;;;4823391;29;20050;-68
2023/08/18 12:28:11;;;;;;;1.73;1.63;;;21.50;99.90;;;;;;4828747;29;20598;-64
2023/08/18 12:30:38;;;;;;;1.73;1.63;;;21.60;99.90;;;;;;4823244;29;20149;-67
2023/08/18 12:33:05;;;;;;;2.10;1.50;;;21.70;99.90;;;;;;4827226;29;20118;-67
2023/08/18 12:35:32;;;;;;;2.00;1.75;;;22.00;99.90;;;;;;4819063;29;20058;-65
2023/08/18 12:38:00;;;;;;;3.45;1.75;;;22.30;99.90;;;;;;4823115;29;20477;-61
2023/08/18 12:40:27;;;;;;;1.70;1.60;;;22.50;99.90;;;;;;4821793;29;20050;-66
2023/08/18 12:42:54;;;;;;;3.28;1.75;;;22.60;99.90;;;;;;4826456;29;20074;-64
2023/08/18 12:45:21;;;;;;;1.90;1.80;;;22.80;99.90;;;;;;4822889;29;20136;-70
2023/08/18 12:47:48;;;;;;;2.78;1.42;;;22.90;99.90;;;;;;4822761;29;20050;-62
2023/08/18 12:50:14;;;;;;;2.58;1.75;;;22.70;99.90;;;;;;4825829;29;20046;-66
2023/08/18 12:52:42;;;;;;;1.95;1.67;;;22.60;99.90;;;;;;4822064;29;20106;-69